createdAt,value
2022-07-29T00:01:46.981Z,15.6
2022-07-29T00:03:48.254Z,15.6
2022-07-29T00:05:52.421Z,15.5
2022-07-29T00:07:53.549Z,15.6
2022-07-29T00:09:54.719Z,15.5
2022-07-29T00:11:55.876Z,15.5
2022-07-29T00:13:56.989Z,15.5
2022-07-29T00:17:59.355Z,15.4
2022-07-29T00:20:03.663Z,15.4
2022-07-29T00:22:04.829Z,15.4
2022-07-29T00:24:05.965Z,15.4
2022-07-29T00:25:08.111Z,15.4
2022-07-29T00:29:33.484Z,15.3
2022-07-29T00:31:11.588Z,15.3
2022-07-29T00:33:15.851Z,15.3
2022-07-29T00:35:16.969Z,15.3
2022-07-29T00:37:18.109Z,15.2
2022-07-29T00:39:19.273Z,15.2
2022-07-29T00:41:20.430Z,15.2
2022-07-29T00:43:21.551Z,15.2
2022-07-29T00:45:22.694Z,15.2
2022-07-29T00:47:26.998Z,15.2
2022-07-29T00:49:28.325Z,15.2
2022-07-29T00:51:29.329Z,15.1
2022-07-29T00:53:30.546Z,15.1
2022-07-29T00:55:31.715Z,15.1
2022-07-29T00:57:32.864Z,15
2022-07-29T00:59:35.041Z,15
2022-07-29T01:01:38.606Z,15.1
2022-07-29T01:03:39.733Z,15.1
2022-07-29T01:05:50.729Z,15
2022-07-29T01:07:42.036Z,15
2022-07-29T01:09:46.915Z,15
2022-07-29T01:17:52.811Z,14.9
2022-07-29T01:19:52.309Z,14.9
2022-07-29T01:22:14.493Z,14.9
2022-07-29T01:24:16.120Z,14.9
2022-07-29T01:26:20.291Z,14.9
2022-07-29T01:28:21.333Z,14.9
2022-07-29T01:30:22.576Z,14.9
2022-07-29T01:34:25.071Z,14.9
2022-07-29T01:36:26.247Z,14.8
2022-07-29T01:42:33.285Z,14.8
2022-07-29T01:48:37.021Z,14.8
2022-07-29T01:50:38.162Z,14.8
2022-07-29T02:00:47.573Z,14.7
2022-07-29T02:02:48.738Z,14.8
2022-07-29T02:08:52.483Z,14.8
2022-07-29T02:12:58.034Z,14.8
2022-07-29T02:16:01.647Z,14.8
2022-07-29T02:18:02.807Z,14.8
2022-07-29T02:20:04.071Z,14.8
2022-07-29T02:22:05.315Z,14.8
2022-07-29T02:24:09.845Z,14.8
2022-07-29T02:28:12.358Z,14.8
2022-07-29T02:30:13.602Z,14.8
2022-07-29T02:32:14.872Z,14.8
2022-07-29T02:38:21.905Z,14.9
2022-07-29T02:40:23.128Z,14.9
2022-07-29T02:54:34.973Z,15
2022-07-29T02:56:36.125Z,15
2022-07-29T02:58:37.253Z,15
2022-07-29T03:00:38.368Z,15
2022-07-29T03:02:39.519Z,15
2022-07-29T03:04:40.674Z,14.9
2022-07-29T03:06:45.173Z,14.9
2022-07-29T03:08:46.277Z,14.9
2022-07-29T03:10:47.413Z,15
2022-07-29T03:11:50.966Z,14.9
2022-07-29T03:13:50.733Z,14.9
2022-07-29T03:15:51.930Z,14.9
2022-07-29T03:17:53.010Z,14.9
2022-07-29T03:19:57.437Z,14.9
2022-07-29T03:21:58.592Z,15
2022-07-29T03:23:59.722Z,14.9
2022-07-29T03:28:02.134Z,15
2022-07-29T03:30:03.251Z,15
2022-07-29T03:32:04.438Z,14.9
2022-07-29T03:34:08.833Z,14.9
2022-07-29T03:38:11.272Z,14.9
2022-07-29T03:40:12.499Z,14.9
2022-07-29T03:42:13.726Z,14.9
2022-07-29T03:44:15.265Z,14.9
2022-07-29T03:52:22.942Z,14.9
2022-07-29T03:54:24.104Z,14.9
2022-07-29T03:56:25.336Z,14.9
2022-07-29T03:58:26.601Z,14.9
2022-07-29T04:00:27.847Z,14.8
2022-07-29T04:02:32.471Z,14.8
2022-07-29T04:07:37.161Z,14.7
2022-07-29T04:09:38.419Z,14.7
2022-07-29T04:11:56.957Z,14.7
2022-07-29T04:13:40.790Z,14.6
2022-07-29T04:15:45.373Z,14.4
2022-07-29T04:17:46.553Z,14.4
2022-07-29T04:27:52.857Z,14.1
2022-07-29T04:33:59.871Z,14
2022-07-29T04:38:02.349Z,14
2022-07-29T04:40:03.604Z,14
2022-07-29T04:42:04.864Z,14
2022-07-29T04:44:10.898Z,14
2022-07-29T04:46:12.206Z,14
2022-07-29T04:48:13.389Z,14
2022-07-29T04:50:14.621Z,14
2022-07-29T04:52:15.896Z,13.9
2022-07-29T04:54:17.503Z,13.8
2022-07-29T04:56:18.365Z,13.8
2022-07-29T04:58:22.910Z,14
2022-07-29T05:00:24.172Z,14
2022-07-29T05:02:25.438Z,14
2022-07-29T05:16:58.616Z,13.7
2022-07-29T05:18:59.881Z,13.7
2022-07-29T05:23:02.390Z,13.7
2022-07-29T05:25:09.184Z,13.9
2022-07-29T05:33:35.807Z,14
2022-07-29T05:35:13.182Z,14.1
2022-07-29T05:37:14.413Z,14.1
2022-07-29T05:39:18.954Z,14
2022-07-29T05:41:20.224Z,14
2022-07-29T05:45:22.690Z,14
2022-07-29T05:47:23.932Z,14
2022-07-29T05:49:27.450Z,13.9
2022-07-29T05:51:26.472Z,14
2022-07-29T05:55:32.210Z,14
2022-07-29T05:57:33.488Z,13.9
2022-07-29T05:58:35.748Z,14
2022-07-29T06:00:36.992Z,14.1
2022-07-29T06:02:38.271Z,14.2
2022-07-29T06:04:39.592Z,14.2
2022-07-29T06:06:44.229Z,14.3
2022-07-29T06:08:45.279Z,14.3
2022-07-29T06:10:46.595Z,14.3
2022-07-29T06:12:47.829Z,14.5
2022-07-29T06:24:58.551Z,14.6
2022-07-29T06:26:59.829Z,14.6
2022-07-29T06:29:01.047Z,14.5
2022-07-29T06:31:02.341Z,14.5
2022-07-29T06:33:03.522Z,14.6
2022-07-29T06:35:37.891Z,14.6
2022-07-29T06:37:11.267Z,14.5
2022-07-29T06:39:11.682Z,14.5
2022-07-29T06:41:11.785Z,14.6
2022-07-29T06:43:13.028Z,14.6
2022-07-29T06:45:14.266Z,14.6
2022-07-29T06:47:15.509Z,14.8
2022-07-29T06:51:23.323Z,14.9
2022-07-29T06:53:22.278Z,14.8
2022-07-29T06:54:24.416Z,14.7
2022-07-29T06:56:25.560Z,14.7
2022-07-29T06:58:26.698Z,14.7
2022-07-29T07:00:27.861Z,14.8
2022-07-29T07:02:32.203Z,14.9
2022-07-29T07:04:33.294Z,14.9
2022-07-29T07:06:34.430Z,14.9
2022-07-29T07:10:36.698Z,15
2022-07-29T07:12:37.833Z,15
2022-07-29T07:16:43.363Z,15.1
2022-07-29T07:18:44.408Z,15.1
2022-07-29T07:20:45.573Z,15
2022-07-29T07:22:46.671Z,15.1
2022-07-29T07:26:48.919Z,15.3
2022-07-29T07:28:50.050Z,15.5
2022-07-29T07:30:54.378Z,15.6
2022-07-29T07:32:55.472Z,15.7
2022-07-29T07:34:56.625Z,15.8
2022-07-29T07:36:57.710Z,16.1
2022-07-29T07:43:01.089Z,15.9
2022-07-29T07:45:13.616Z,15.8
2022-07-29T07:47:12.297Z,15.9
2022-07-29T07:49:08.083Z,15.9
2022-07-29T07:54:12.527Z,16
2022-07-29T07:56:13.489Z,16.2
2022-07-29T07:58:17.809Z,16.2
2022-07-29T08:00:18.884Z,16.2
2022-07-29T08:02:20.196Z,16.2
2022-07-29T08:06:22.224Z,16.3
2022-07-29T08:08:23.342Z,16.6
2022-07-29T08:10:24.422Z,16.6
2022-07-29T08:12:28.722Z,16.8
2022-07-29T08:14:29.843Z,16.9
2022-07-29T08:16:30.970Z,16.8
2022-07-29T08:18:32.041Z,16.9
2022-07-29T08:20:33.143Z,17
2022-07-29T08:22:34.233Z,16.6
2022-07-29T08:24:35.360Z,16.5
2022-07-29T08:26:39.675Z,16.4
2022-07-29T08:30:41.812Z,16.6
2022-07-29T08:32:53.674Z,16.7
2022-07-29T08:36:45.099Z,16.8
2022-07-29T08:38:46.219Z,16.8
2022-07-29T08:40:50.473Z,16.9
2022-07-29T08:42:51.578Z,17
2022-07-29T08:44:52.683Z,17.3
2022-07-29T08:47:15.046Z,17.4
2022-07-29T08:49:16.199Z,17.4
2022-07-29T08:51:17.227Z,17.5
2022-07-29T08:53:21.522Z,17.4
2022-07-29T08:55:22.629Z,17.4
2022-07-29T08:57:23.710Z,17.2
2022-07-29T08:59:24.833Z,17.3
2022-07-29T09:01:35.155Z,17.6
2022-07-29T09:03:27.049Z,17.6
2022-07-29T09:05:28.098Z,17.8
2022-07-29T09:07:34.824Z,17.9
2022-07-29T09:09:33.444Z,18.1
2022-07-29T09:11:34.526Z,18.2
2022-07-29T09:15:36.705Z,18.4
2022-07-29T09:17:37.845Z,18.4
2022-07-29T09:19:38.856Z,18.3
2022-07-29T09:21:43.121Z,18.2
2022-07-29T09:23:44.217Z,18.2
2022-07-29T09:25:45.294Z,18.1
2022-07-29T09:27:46.351Z,17.9
2022-07-29T09:29:47.424Z,18.1
2022-07-29T09:31:48.595Z,18.2
2022-07-29T09:33:49.610Z,18.4
2022-07-29T09:35:56.528Z,18.3
2022-07-29T09:37:54.961Z,18.3
2022-07-29T09:39:56.039Z,18.6
2022-07-29T09:42:59.256Z,18.4
2022-07-29T09:45:00.338Z,18.2
2022-07-29T09:47:01.518Z,18.1
2022-07-29T09:49:05.739Z,18.4
2022-07-29T09:51:06.740Z,18.4
2022-07-29T09:53:07.816Z,18.4
2022-07-29T09:55:08.905Z,18.5
2022-07-29T09:57:09.969Z,18.3
2022-07-29T09:59:11.048Z,18.3
2022-07-29T10:01:12.217Z,18.4
2022-07-29T10:03:16.591Z,18.3
2022-07-29T10:05:17.489Z,18.2
2022-07-29T10:07:18.595Z,18.4
2022-07-29T10:09:19.714Z,18.5
2022-07-29T10:13:22.051Z,18.7
2022-07-29T10:15:22.900Z,18.7
2022-07-29T10:17:27.169Z,18.7
2022-07-29T10:19:28.258Z,18.8
2022-07-29T10:21:35.317Z,18.7
2022-07-29T10:23:30.400Z,18.6
2022-07-29T10:25:31.477Z,18.7
2022-07-29T10:27:32.915Z,18.9
2022-07-29T10:29:33.652Z,19
2022-07-29T10:31:39.560Z,19.1
2022-07-29T10:33:40.527Z,19.2
2022-07-29T10:35:41.578Z,19.4
2022-07-29T10:40:45.860Z,19.2
2022-07-29T10:42:46.931Z,19.3
2022-07-29T10:44:51.212Z,19.2
2022-07-29T10:46:52.488Z,19.1
2022-07-29T10:48:53.407Z,19
2022-07-29T10:50:54.418Z,19.2
2022-07-29T10:52:55.496Z,19.6
2022-07-29T10:54:56.581Z,19.8
2022-07-29T10:56:57.661Z,20
2022-07-29T10:59:01.969Z,20.1
2022-07-29T11:01:02.956Z,20.2
2022-07-29T11:03:04.684Z,20.2
2022-07-29T11:05:05.292Z,20.3
2022-07-29T11:07:06.368Z,20.5
2022-07-29T11:09:07.414Z,20.7
2022-07-29T11:11:08.467Z,20.5
2022-07-29T11:13:12.724Z,20.6
2022-07-29T11:15:13.785Z,20.3
2022-07-29T11:17:14.797Z,20.5
2022-07-29T11:19:15.832Z,20.4
2022-07-29T11:21:16.877Z,20.2
2022-07-29T11:23:17.923Z,20.2
2022-07-29T11:25:18.959Z,20.2
2022-07-29T11:27:23.249Z,20.1
2022-07-29T11:29:24.291Z,19.9
2022-07-29T11:32:29.497Z,20.6
2022-07-29T11:34:29.777Z,20.6
2022-07-29T11:36:29.457Z,21
2022-07-29T11:38:32.046Z,21.1
2022-07-29T11:40:34.721Z,21.1
2022-07-29T11:42:35.760Z,20.9
2022-07-29T11:44:36.777Z,21
2022-07-29T11:46:37.810Z,21.1
2022-07-29T11:48:38.870Z,21.2
2022-07-29T11:50:44.403Z,21.2
2022-07-29T11:52:49.548Z,21
2022-07-29T11:54:57.469Z,21.2
2022-07-29T11:56:46.306Z,21.4
2022-07-29T12:00:48.076Z,21.2
2022-07-29T12:04:50.069Z,21.6
2022-07-29T12:10:56.271Z,21.4
2022-07-29T12:12:57.260Z,21.6
2022-07-29T12:14:58.246Z,21.8
2022-07-29T12:16:59.331Z,22.1
2022-07-29T12:19:00.229Z,22
2022-07-29T12:21:03.415Z,21.8
2022-07-29T12:23:05.396Z,22.2
2022-07-29T12:25:30.404Z,22.1
2022-07-29T12:27:07.349Z,22.1
2022-07-29T12:29:35.883Z,22
2022-07-29T12:31:42.739Z,21.9
2022-07-29T12:33:37.119Z,21.9
2022-07-29T12:35:41.333Z,22.3
2022-07-29T12:37:42.733Z,22.5
2022-07-29T12:39:43.313Z,22.9
2022-07-29T12:41:44.303Z,23.1
2022-07-29T12:45:46.254Z,22.5
2022-07-29T12:47:47.239Z,22.9
2022-07-29T12:49:51.524Z,23
2022-07-29T12:51:52.449Z,23.2
2022-07-29T12:53:53.447Z,23.1
2022-07-29T12:59:56.412Z,22.5
2022-07-29T13:16:07.574Z,24.2
2022-07-29T13:20:12.762Z,23.7
2022-07-29T13:23:15.853Z,23.6
2022-07-29T13:25:16.825Z,23.6
2022-07-29T13:27:17.806Z,23.2
2022-07-29T13:29:18.800Z,23.1
2022-07-29T13:31:22.995Z,23.2
2022-07-29T13:33:23.959Z,23.1
2022-07-29T13:35:24.955Z,23
2022-07-29T13:37:25.918Z,23.3
2022-07-29T13:39:26.926Z,23.4
2022-07-29T13:41:27.917Z,23.7
2022-07-29T13:43:28.894Z,23.7
2022-07-29T13:45:33.093Z,23.6
2022-07-29T13:47:34.109Z,23.6
2022-07-29T13:49:35.062Z,23.9
2022-07-29T13:51:36.047Z,24.1
2022-07-29T13:55:37.999Z,24.1
2022-07-29T13:57:38.980Z,24
2022-07-29T13:59:43.179Z,23.8
2022-07-29T14:03:45.718Z,24
2022-07-29T14:05:46.088Z,24.2
2022-07-29T14:07:47.078Z,24.4
2022-07-29T14:09:48.035Z,24.5
2022-07-29T14:11:49.022Z,24.3
2022-07-29T14:13:53.223Z,24.1
2022-07-29T14:15:54.184Z,24.1
2022-07-29T14:17:55.136Z,23.8
2022-07-29T14:20:58.197Z,23.9
2022-07-29T14:22:59.148Z,24
2022-07-29T14:25:04.530Z,24.1
2022-07-29T14:29:05.262Z,23.7
2022-07-29T14:31:06.201Z,23.7
2022-07-29T14:33:07.177Z,23.7
2022-07-29T14:35:08.145Z,23.9
2022-07-29T14:37:09.112Z,24.1
2022-07-29T14:39:10.094Z,24.2
2022-07-29T14:43:15.236Z,24.5
2022-07-29T14:45:16.203Z,24.4
2022-07-29T14:47:17.146Z,24.2
2022-07-29T14:49:18.223Z,24.2
2022-07-29T14:51:19.078Z,24.3
2022-07-29T14:53:20.065Z,24.5
2022-07-29T14:55:24.247Z,24.8
2022-07-29T15:01:27.230Z,24.2
2022-07-29T15:03:28.168Z,24.4
2022-07-29T15:05:29.090Z,24.7
2022-07-29T15:14:38.216Z,24.9
2022-07-29T15:16:39.330Z,25
2022-07-29T15:18:40.161Z,25
2022-07-29T15:20:41.127Z,24.9
2022-07-29T15:22:45.312Z,25.2
2022-07-29T15:24:46.275Z,25.3
2022-07-29T15:26:47.222Z,25.1
2022-07-29T15:28:48.187Z,25.1
2022-07-29T15:30:49.153Z,25.1
2022-07-29T15:32:50.121Z,24.8
2022-07-29T15:34:51.080Z,24.9
2022-07-29T15:36:55.270Z,25.4
2022-07-29T15:38:56.228Z,25.4
2022-07-29T15:40:57.201Z,25.4
2022-07-29T15:42:58.179Z,25.3
2022-07-29T15:44:59.088Z,25.2
2022-07-29T15:47:00.728Z,25.2
2022-07-29T15:49:01.091Z,25.2
2022-07-29T15:55:07.080Z,25.1
2022-07-29T15:57:08.029Z,25.1
2022-07-29T15:59:08.991Z,25
2022-07-29T16:01:10.063Z,25
2022-07-29T16:03:10.883Z,24.7
2022-07-29T16:09:16.989Z,25
2022-07-29T16:11:44.776Z,25.2
2022-07-29T16:17:50.857Z,25.1
2022-07-29T16:19:53.364Z,25
2022-07-29T16:21:59.525Z,24.9
2022-07-29T16:23:55.233Z,25
2022-07-29T16:27:59.818Z,25.2
2022-07-29T16:29:58.126Z,25.1
2022-07-29T16:32:02.335Z,25.1
2022-07-29T16:34:03.229Z,25
2022-07-29T16:38:05.151Z,24.5
2022-07-29T16:40:06.131Z,24.4
2022-07-29T16:42:07.113Z,24.3
2022-07-29T16:44:08.047Z,24.4
2022-07-29T16:46:13.202Z,24.3
2022-07-29T16:48:13.189Z,24.3
2022-07-29T16:50:14.270Z,24.2
2022-07-29T16:52:15.143Z,24.1
2022-07-29T16:54:16.107Z,24.1
2022-07-29T16:56:17.068Z,24
2022-07-29T16:58:18.039Z,24
2022-07-29T17:00:22.248Z,23.9
2022-07-29T17:02:23.270Z,23.9
2022-07-29T17:04:24.211Z,23.9
2022-07-29T17:07:27.266Z,23.9
2022-07-29T17:09:28.260Z,23.8
2022-07-29T17:11:52.426Z,23.8
2022-07-29T17:13:33.429Z,23.8
2022-07-29T17:15:36.391Z,23.7
2022-07-29T17:17:38.535Z,23.7
2022-07-29T17:19:36.384Z,23.7
2022-07-29T17:21:38.160Z,23.7
2022-07-29T17:23:39.133Z,23.8
2022-07-29T17:25:40.136Z,23.8
2022-07-29T17:27:44.345Z,23.7
2022-07-29T17:29:45.327Z,23.7
2022-07-29T17:31:46.338Z,23.6
2022-07-29T17:33:47.324Z,23.7
2022-07-29T17:35:48.299Z,23.8
2022-07-29T17:37:49.293Z,23.8
2022-07-29T17:39:50.281Z,23.8
2022-07-29T17:47:57.473Z,23.9
2022-07-29T17:49:58.463Z,23.8
2022-07-29T17:52:01.134Z,23.8
2022-07-29T17:54:00.445Z,23.8
2022-07-29T17:58:05.675Z,23.7
2022-07-29T18:00:08.434Z,23.7
2022-07-29T18:01:08.877Z,23.7
2022-07-29T18:03:09.830Z,23.7
2022-07-29T18:05:10.767Z,23.6
2022-07-29T18:07:11.754Z,23.5
2022-07-29T18:11:16.935Z,23.4
2022-07-29T18:13:17.946Z,23.4
2022-07-29T18:15:18.935Z,23.4
2022-07-29T18:17:19.922Z,23.2
2022-07-29T18:19:20.934Z,23.1
2022-07-29T18:21:41.039Z,23
2022-07-29T18:25:27.132Z,22.9
2022-07-29T18:27:28.129Z,22.9
2022-07-29T18:31:30.285Z,22.7
2022-07-29T18:33:31.162Z,22.7
2022-07-29T18:35:32.162Z,22.6
2022-07-29T18:39:37.392Z,22.7
2022-07-29T18:41:38.408Z,22.6
2022-07-29T18:43:39.409Z,22.6
2022-07-29T18:45:40.459Z,22.6
2022-07-29T18:47:41.457Z,22.6
2022-07-29T18:49:42.473Z,22.6
2022-07-29T18:51:46.698Z,22.5
2022-07-29T18:53:47.698Z,22.5
2022-07-29T18:55:48.729Z,22.5
2022-07-29T18:56:50.839Z,22.5
2022-07-29T19:00:52.894Z,22.5
2022-07-29T19:02:54.094Z,22.5
2022-07-29T19:04:58.130Z,22.4
2022-07-29T19:06:59.627Z,22.4
2022-07-29T19:09:00.195Z,22.3
2022-07-29T19:11:01.222Z,22.3
2022-07-29T19:13:02.276Z,22.2
2022-07-29T19:15:03.356Z,22.2
2022-07-29T19:17:04.495Z,22.1
2022-07-29T19:19:08.545Z,22.1
2022-07-29T19:21:09.562Z,22.1
2022-07-29T19:23:10.591Z,22
2022-07-29T19:25:11.621Z,22
2022-07-29T19:27:12.687Z,21.9
2022-07-29T19:29:13.689Z,21.8
2022-07-29T19:31:14.811Z,21.7
2022-07-29T19:33:19.042Z,21.6
2022-07-29T19:35:20.014Z,21.6
2022-07-29T19:37:21.031Z,21.6
2022-07-29T19:41:23.134Z,21.4
2022-07-29T19:43:49.697Z,21.4
2022-07-29T19:45:25.313Z,21.2
2022-07-29T19:47:29.473Z,21.1
2022-07-29T19:49:30.515Z,21.1
2022-07-29T19:53:59.481Z,20.8
2022-07-29T19:56:00.496Z,20.8
2022-07-29T19:58:01.568Z,20.6
2022-07-29T20:00:05.826Z,20.5
2022-07-29T20:02:06.952Z,20.5
2022-07-29T20:04:07.923Z,20.4
2022-07-29T20:06:08.970Z,20.4
2022-07-29T20:08:10.030Z,20.3
2022-07-29T20:10:11.093Z,20.3
2022-07-29T20:16:17.518Z,20.1
2022-07-29T20:18:18.526Z,20
2022-07-29T20:20:19.591Z,20
2022-07-29T20:22:21.186Z,20
2022-07-29T20:24:21.695Z,19.9
2022-07-29T20:26:22.760Z,19.8
2022-07-29T20:28:27.010Z,19.7
2022-07-29T20:30:28.100Z,19.7
2022-07-29T20:32:29.166Z,19.7
2022-07-29T20:34:30.232Z,19.6
2022-07-29T20:36:31.279Z,19.6
2022-07-29T20:38:32.363Z,19.5
2022-07-29T20:40:33.439Z,19.4
2022-07-29T20:42:37.700Z,19.3
2022-07-29T20:44:38.752Z,19.3
2022-07-29T20:46:39.946Z,19.2
2022-07-29T20:47:41.961Z,19.1
2022-07-29T20:49:43.053Z,19.1
2022-07-29T20:51:44.296Z,19.1
2022-07-29T20:53:45.180Z,19.2
2022-07-29T20:55:49.477Z,19.1
2022-07-29T21:05:54.864Z,18.9
2022-07-29T21:07:58.230Z,18.8
2022-07-29T21:10:00.240Z,18.8
2022-07-29T21:12:01.277Z,18.8
2022-07-29T21:14:02.379Z,18.7
2022-07-29T21:18:04.587Z,18.7
2022-07-29T21:20:05.675Z,18.7
2022-07-29T21:22:06.774Z,18.6
2022-07-29T21:24:12.005Z,18.6
2022-07-29T21:30:14.308Z,18.6
2022-07-29T21:32:27.493Z,18.6
2022-07-29T21:34:16.479Z,18.6
2022-07-29T21:36:46.375Z,18.6
2022-07-29T21:38:21.862Z,18.5
2022-07-29T21:40:22.959Z,18.5
2022-07-29T21:43:26.202Z,18.5
2022-07-29T21:45:27.439Z,18.5
2022-07-29T21:47:28.377Z,18.5
2022-07-29T21:49:29.545Z,18.4
2022-07-29T21:51:33.779Z,18.4
2022-07-29T21:53:34.847Z,18.4
2022-07-29T21:55:35.941Z,18.4
2022-07-29T21:57:37.039Z,18.3
2022-07-29T21:59:38.131Z,18.3
2022-07-29T22:01:39.692Z,18.3
2022-07-29T22:03:40.372Z,18.2
2022-07-29T22:05:44.805Z,18.2
2022-07-29T22:07:54.429Z,18.1
2022-07-29T22:09:48.389Z,18.1
2022-07-29T22:11:49.467Z,18.1
2022-07-29T22:13:50.568Z,18
2022-07-29T22:15:51.665Z,18
2022-07-29T22:17:52.753Z,18
2022-07-29T22:19:57.068Z,17.9
2022-07-29T22:21:58.177Z,17.9
2022-07-29T22:26:00.366Z,17.9
2022-07-29T22:28:01.518Z,17.9
2022-07-29T22:30:02.610Z,17.9
2022-07-29T22:32:03.708Z,17.8
2022-07-29T22:34:07.989Z,17.8
2022-07-29T22:36:09.136Z,17.8
2022-07-29T22:38:10.269Z,17.8
2022-07-29T22:39:15.497Z,17.7
2022-07-29T22:41:14.801Z,17.8
2022-07-29T22:43:14.609Z,17.7
2022-07-29T22:45:15.741Z,17.7
2022-07-29T22:47:45.845Z,17.6
2022-07-29T22:49:21.228Z,17.6
2022-07-29T22:51:22.288Z,17.6
2022-07-29T22:53:23.404Z,17.6
2022-07-29T22:55:24.517Z,17.6
2022-07-29T22:57:25.645Z,17.5
2022-07-29T22:59:26.761Z,17.5
2022-07-29T23:01:37.558Z,17.5
2022-07-29T23:03:32.178Z,17.5
2022-07-29T23:05:33.284Z,17.4
2022-07-29T23:07:34.362Z,17.4
2022-07-29T23:09:35.488Z,17.4
2022-07-29T23:11:36.590Z,17.4
2022-07-29T23:19:44.242Z,17.4
2022-07-29T23:21:45.372Z,17.3
2022-07-29T23:23:46.480Z,17.3
2022-07-29T23:25:47.586Z,17.3
2022-07-29T23:27:48.707Z,17.3
2022-07-29T23:29:53.001Z,17.3
2022-07-29T23:31:54.119Z,17.3
2022-07-29T23:33:55.223Z,17.2
2022-07-29T23:40:19.554Z,17.2
2022-07-29T23:46:26.140Z,17.1
2022-07-29T23:48:27.213Z,17.1
2022-07-29T23:50:28.324Z,17.1
2022-07-29T23:52:29.442Z,17.1
2022-07-29T23:54:30.545Z,17.1
2022-07-29T23:56:34.878Z,17.1
2022-07-29T23:58:35.979Z,17
